Terminal Aerodrome Forecast
Issued by NWS Atlanta, GA

Home | Current Version | Previous Version | Text Only | Print | Product List | Glossary On
Versions: 1 2 3 4 5 6 7 8 9 10 11 12 13 14 15 16 17 18 19 20 21 22 23 24 25 26 27 28 29 30 31 32 33 34 35 36
000
FTAK31 PAJN 290800 AAB
TAFAHN
TAF AMD
PAHN 290801Z 2908/3006 00000KT 5SM -RA BR SCT005 BKN010 OVC060
      TEMPO 2908/2912 2SM -RA BR BKN004 OVC050
     FM291200 VRB03KT P6SM -RA OVC050
     FM291500 VRB04KT P6SM -RA SCT020 OVC040
     FM291800 12005KT P6SM -RA SCT015 BKN025 OVC050
     FM292100 12008KT P6SM -RA OVC050
      AMD LTD TO CLD VIS AND WIND=

USA.gov is the U.S. government's official web portal to all federal, state and local government web resources and services.